sensor_id;sensor_type;location;lat;lon;timestamp;P1;durP1;ratioP1;P2;durP2;ratioP2
62707;SDS011;48769;51.624;5.886;2024-02-23T00:00:48;3.20;;;1.00;;
62707;SDS011;48769;51.624;5.886;2024-02-23T00:03:13;3.83;;;0.63;;
62707;SDS011;48769;51.624;5.886;2024-02-23T00:05:38;2.08;;;0.73;;
62707;SDS011;48769;51.624;5.886;2024-02-23T00:08:03;2.10;;;0.55;;
62707;SDS011;48769;51.624;5.886;2024-02-23T00:10:29;2.13;;;0.52;;
62707;SDS011;48769;51.624;5.886;2024-02-23T00:12:54;2.00;;;0.50;;
62707;SDS011;48769;51.624;5.886;2024-02-23T00:15:20;2.63;;;0.95;;
62707;SDS011;48769;51.624;5.886;2024-02-23T00:17:45;6.03;;;1.40;;
62707;SDS011;48769;51.624;5.886;2024-02-23T00:20:11;2.45;;;1.45;;
62707;SDS011;48769;51.624;5.886;2024-02-23T00:22:37;3.28;;;2.13;;
62707;SDS011;48769;51.624;5.886;2024-02-23T00:25:02;6.65;;;3.53;;
62707;SDS011;48769;51.624;5.886;2024-02-23T00:27:28;7.78;;;3.13;;
62707;SDS011;48769;51.624;5.886;2024-02-23T00:29:53;5.47;;;2.72;;
62707;SDS011;48769;51.624;5.886;2024-02-23T00:32:18;4.20;;;3.42;;
62707;SDS011;48769;51.624;5.886;2024-02-23T00:34:44;5.15;;;3.28;;
62707;SDS011;48769;51.624;5.886;2024-02-23T00:37:09;4.40;;;3.67;;
62707;SDS011;48769;51.624;5.886;2024-02-23T00:39:34;8.73;;;4.50;;
62707;SDS011;48769;51.624;5.886;2024-02-23T00:42:01;6.78;;;3.92;;
62707;SDS011;48769;51.624;5.886;2024-02-23T00:44:27;6.93;;;4.72;;
62707;SDS011;48769;51.624;5.886;2024-02-23T00:46:52;6.60;;;3.80;;
62707;SDS011;48769;51.624;5.886;2024-02-23T00:49:17;9.15;;;3.42;;
62707;SDS011;48769;51.624;5.886;2024-02-23T00:51:42;4.95;;;3.65;;
62707;SDS011;48769;51.624;5.886;2024-02-23T00:54:08;5.72;;;3.35;;
62707;SDS011;48769;51.624;5.886;2024-02-23T00:56:34;4.85;;;3.00;;
62707;SDS011;48769;51.624;5.886;2024-02-23T00:59:00;7.05;;;2.97;;
62707;SDS011;48769;51.624;5.886;2024-02-23T01:01:25;4.82;;;2.85;;
62707;SDS011;48769;51.624;5.886;2024-02-23T01:03:51;4.30;;;2.65;;
62707;SDS011;48769;51.624;5.886;2024-02-23T01:06:17;6.65;;;2.72;;
62707;SDS011;48769;51.624;5.886;2024-02-23T01:08:42;4.82;;;2.30;;
62707;SDS011;48769;51.624;5.886;2024-02-23T01:11:08;5.63;;;2.55;;
62707;SDS011;48769;51.624;5.886;2024-02-23T01:13:33;6.45;;;1.65;;
62707;SDS011;48769;51.624;5.886;2024-02-23T01:15:58;6.68;;;2.08;;
62707;SDS011;48769;51.624;5.886;2024-02-23T01:18:23;3.88;;;1.90;;
62707;SDS011;48769;51.624;5.886;2024-02-23T01:20:49;7.03;;;1.92;;
62707;SDS011;48769;51.624;5.886;2024-02-23T01:23:14;7.45;;;1.77;;
62707;SDS011;48769;51.624;5.886;2024-02-23T01:25:40;6.57;;;1.83;;
62707;SDS011;48769;51.624;5.886;2024-02-23T01:28:05;12.50;;;3.58;;
62707;SDS011;48769;51.624;5.886;2024-02-23T01:30:31;7.85;;;1.50;;
62707;SDS011;48769;51.624;5.886;2024-02-23T01:32:56;4.18;;;1.13;;
62707;SDS011;48769;51.624;5.886;2024-02-23T01:35:21;7.68;;;1.60;;
62707;SDS011;48769;51.624;5.886;2024-02-23T01:37:47;6.57;;;1.25;;
62707;SDS011;48769;51.624;5.886;2024-02-23T01:40:12;7.25;;;1.33;;
62707;SDS011;48769;51.624;5.886;2024-02-23T01:42:38;3.45;;;1.15;;
62707;SDS011;48769;51.624;5.886;2024-02-23T01:45:03;8.90;;;2.63;;
62707;SDS011;48769;51.624;5.886;2024-02-23T01:47:29;8.60;;;1.30;;
62707;SDS011;48769;51.624;5.886;2024-02-23T01:49:55;10.48;;;1.30;;
62707;SDS011;48769;51.624;5.886;2024-02-23T01:52:23;5.78;;;1.40;;
62707;SDS011;48769;51.624;5.886;2024-02-23T01:54:48;6.47;;;1.15;;
62707;SDS011;48769;51.624;5.886;2024-02-23T01:57:13;9.45;;;2.03;;
62707;SDS011;48769;51.624;5.886;2024-02-23T01:59:39;6.38;;;1.05;;
62707;SDS011;48769;51.624;5.886;2024-02-23T02:02:05;7.88;;;1.33;;
62707;SDS011;48769;51.624;5.886;2024-02-23T02:04:30;5.40;;;1.65;;
62707;SDS011;48769;51.624;5.886;2024-02-23T02:06:56;6.00;;;1.35;;
62707;SDS011;48769;51.624;5.886;2024-02-23T02:09:23;6.45;;;1.50;;
62707;SDS011;48769;51.624;5.886;2024-02-23T02:11:50;10.77;;;1.83;;
62707;SDS011;48769;51.624;5.886;2024-02-23T02:14:16;7.90;;;1.70;;
62707;SDS011;48769;51.624;5.886;2024-02-23T02:16:41;7.65;;;1.50;;
62707;SDS011;48769;51.624;5.886;2024-02-23T02:19:08;5.00;;;1.60;;
62707;SDS011;48769;51.624;5.886;2024-02-23T02:21:34;6.47;;;1.27;;
62707;SDS011;48769;51.624;5.886;2024-02-23T02:24:00;8.07;;;1.73;;
62707;SDS011;48769;51.624;5.886;2024-02-23T02:26:25;7.22;;;2.13;;
62707;SDS011;48769;51.624;5.886;2024-02-23T02:28:50;5.78;;;1.60;;
62707;SDS011;48769;51.624;5.886;2024-02-23T02:31:17;5.75;;;1.50;;
62707;SDS011;48769;51.624;5.886;2024-02-23T02:33:43;5.15;;;1.30;;
62707;SDS011;48769;51.624;5.886;2024-02-23T02:36:09;6.07;;;1.80;;
62707;SDS011;48769;51.624;5.886;2024-02-23T02:38:34;7.95;;;1.30;;
62707;SDS011;48769;51.624;5.886;2024-02-23T02:40:59;7.88;;;1.35;;
62707;SDS011;48769;51.624;5.886;2024-02-23T02:43:27;8.73;;;1.52;;
62707;SDS011;48769;51.624;5.886;2024-02-23T02:45:53;4.18;;;1.20;;
62707;SDS011;48769;51.624;5.886;2024-02-23T02:48:18;10.77;;;1.80;;
62707;SDS011;48769;51.624;5.886;2024-02-23T02:50:44;10.05;;;1.40;;
62707;SDS011;48769;51.624;5.886;2024-02-23T02:53:09;3.75;;;1.00;;
62707;SDS011;48769;51.624;5.886;2024-02-23T02:55:42;5.38;;;1.23;;
62707;SDS011;48769;51.624;5.886;2024-02-23T02:58:08;7.15;;;1.38;;
62707;SDS011;48769;51.624;5.886;2024-02-23T03:00:33;5.35;;;1.10;;
62707;SDS011;48769;51.624;5.886;2024-02-23T03:02:59;9.98;;;1.92;;
62707;SDS011;48769;51.624;5.886;2024-02-23T03:05:24;4.95;;;1.27;;
62707;SDS011;48769;51.624;5.886;2024-02-23T03:07:49;7.47;;;1.40;;
62707;SDS011;48769;51.624;5.886;2024-02-23T03:10:15;5.68;;;1.10;;
62707;SDS011;48769;51.624;5.886;2024-02-23T03:12:40;6.82;;;1.30;;
62707;SDS011;48769;51.624;5.886;2024-02-23T03:15:06;4.95;;;1.00;;
62707;SDS011;48769;51.624;5.886;2024-02-23T03:17:32;5.82;;;1.58;;
62707;SDS011;48769;51.624;5.886;2024-02-23T03:19:57;10.77;;;1.35;;
62707;SDS011;48769;51.624;5.886;2024-02-23T03:22:23;5.93;;;1.13;;
62707;SDS011;48769;51.624;5.886;2024-02-23T03:24:48;9.85;;;2.45;;
62707;SDS011;48769;51.624;5.886;2024-02-23T03:27:14;6.57;;;1.85;;
62707;SDS011;48769;51.624;5.886;2024-02-23T03:29:39;9.40;;;2.22;;
62707;SDS011;48769;51.624;5.886;2024-02-23T03:32:05;3.15;;;1.40;;
62707;SDS011;48769;51.624;5.886;2024-02-23T03:34:31;7.55;;;1.42;;
62707;SDS011;48769;51.624;5.886;2024-02-23T03:36:56;5.90;;;1.35;;
62707;SDS011;48769;51.624;5.886;2024-02-23T03:39:23;9.32;;;1.40;;
62707;SDS011;48769;51.624;5.886;2024-02-23T03:41:48;6.60;;;1.65;;
62707;SDS011;48769;51.624;5.886;2024-02-23T03:44:14;6.88;;;1.70;;
62707;SDS011;48769;51.624;5.886;2024-02-23T03:46:39;8.15;;;1.90;;
62707;SDS011;48769;51.624;5.886;2024-02-23T03:49:04;6.50;;;1.88;;
62707;SDS011;48769;51.624;5.886;2024-02-23T03:51:30;9.02;;;1.70;;
62707;SDS011;48769;51.624;5.886;2024-02-23T03:53:57;8.25;;;1.80;;
62707;SDS011;48769;51.624;5.886;2024-02-23T03:56:22;7.78;;;2.15;;
62707;SDS011;48769;51.624;5.886;2024-02-23T03:58:48;6.65;;;1.92;;
62707;SDS011;48769;51.624;5.886;2024-02-23T04:01:13;7.88;;;2.13;;
62707;SDS011;48769;51.624;5.886;2024-02-23T04:03:38;6.78;;;1.50;;
62707;SDS011;48769;51.624;5.886;2024-02-23T04:06:04;11.52;;;2.53;;
62707;SDS011;48769;51.624;5.886;2024-02-23T04:08:29;4.20;;;1.85;;
62707;SDS011;48769;51.624;5.886;2024-02-23T04:10:54;6.60;;;1.90;;
62707;SDS011;48769;51.624;5.886;2024-02-23T04:13:20;7.82;;;1.90;;
62707;SDS011;48769;51.624;5.886;2024-02-23T04:15:46;9.48;;;2.10;;
62707;SDS011;48769;51.624;5.886;2024-02-23T04:18:11;4.68;;;1.58;;
62707;SDS011;48769;51.624;5.886;2024-02-23T04:20:37;7.35;;;2.00;;
62707;SDS011;48769;51.624;5.886;2024-02-23T04:23:02;11.43;;;2.53;;
62707;SDS011;48769;51.624;5.886;2024-02-23T04:25:27;7.70;;;1.70;;
62707;SDS011;48769;51.624;5.886;2024-02-23T04:27:53;13.40;;;2.95;;
62707;SDS011;48769;51.624;5.886;2024-02-23T04:30:19;8.23;;;2.30;;
62707;SDS011;48769;51.624;5.886;2024-02-23T04:32:44;5.72;;;1.83;;
62707;SDS011;48769;51.624;5.886;2024-02-23T04:35:16;7.53;;;2.30;;
62707;SDS011;48769;51.624;5.886;2024-02-23T04:40:11;7.97;;;2.72;;
62707;SDS011;48769;51.624;5.886;2024-02-23T04:42:37;8.55;;;2.20;;
62707;SDS011;48769;51.624;5.886;2024-02-23T04:45:03;8.73;;;2.22;;
62707;SDS011;48769;51.624;5.886;2024-02-23T04:47:29;9.75;;;1.92;;
62707;SDS011;48769;51.624;5.886;2024-02-23T04:49:54;10.10;;;2.22;;
62707;SDS011;48769;51.624;5.886;2024-02-23T04:52:20;6.68;;;1.77;;
62707;SDS011;48769;51.624;5.886;2024-02-23T04:54:45;7.72;;;1.73;;
62707;SDS011;48769;51.624;5.886;2024-02-23T04:57:10;8.90;;;1.70;;
62707;SDS011;48769;51.624;5.886;2024-02-23T04:59:36;14.50;;;2.78;;
62707;SDS011;48769;51.624;5.886;2024-02-23T05:02:01;11.70;;;2.13;;
62707;SDS011;48769;51.624;5.886;2024-02-23T05:04:26;6.35;;;1.77;;
62707;SDS011;48769;51.624;5.886;2024-02-23T05:06:52;9.98;;;1.48;;
62707;SDS011;48769;51.624;5.886;2024-02-23T05:09:18;8.45;;;1.48;;
62707;SDS011;48769;51.624;5.886;2024-02-23T05:11:43;10.20;;;1.77;;
62707;SDS011;48769;51.624;5.886;2024-02-23T05:14:10;8.18;;;1.52;;
62707;SDS011;48769;51.624;5.886;2024-02-23T05:16:36;7.47;;;1.45;;
62707;SDS011;48769;51.624;5.886;2024-02-23T05:19:02;12.00;;;2.33;;
62707;SDS011;48769;51.624;5.886;2024-02-23T05:21:27;8.55;;;1.60;;
62707;SDS011;48769;51.624;5.886;2024-02-23T05:23:53;6.68;;;1.63;;
62707;SDS011;48769;51.624;5.886;2024-02-23T05:26:18;7.95;;;2.72;;
62707;SDS011;48769;51.624;5.886;2024-02-23T05:28:43;10.60;;;1.55;;
62707;SDS011;48769;51.624;5.886;2024-02-23T05:31:09;6.72;;;1.50;;
62707;SDS011;48769;51.624;5.886;2024-02-23T05:33:35;12.07;;;1.67;;
62707;SDS011;48769;51.624;5.886;2024-02-23T05:36:00;11.90;;;2.08;;
62707;SDS011;48769;51.624;5.886;2024-02-23T05:38:25;9.68;;;1.50;;
62707;SDS011;48769;51.624;5.886;2024-02-23T05:40:51;5.97;;;1.40;;
62707;SDS011;48769;51.624;5.886;2024-02-23T05:43:28;7.53;;;1.30;;
62707;SDS011;48769;51.624;5.886;2024-02-23T05:45:53;9.88;;;1.77;;
62707;SDS011;48769;51.624;5.886;2024-02-23T05:48:22;10.48;;;1.60;;
62707;SDS011;48769;51.624;5.886;2024-02-23T05:50:47;7.30;;;1.60;;
62707;SDS011;48769;51.624;5.886;2024-02-23T05:53:12;11.10;;;2.03;;
62707;SDS011;48769;51.624;5.886;2024-02-23T05:55:38;8.65;;;1.73;;
62707;SDS011;48769;51.624;5.886;2024-02-23T05:58:03;7.13;;;1.35;;
62707;SDS011;48769;51.624;5.886;2024-02-23T06:00:30;6.00;;;2.40;;
62707;SDS011;48769;51.624;5.886;2024-02-23T06:02:56;14.27;;;1.70;;
62707;SDS011;48769;51.624;5.886;2024-02-23T06:05:21;10.50;;;1.75;;
62707;SDS011;48769;51.624;5.886;2024-02-23T06:07:47;10.50;;;1.67;;
62707;SDS011;48769;51.624;5.886;2024-02-23T06:10:12;13.23;;;1.63;;
62707;SDS011;48769;51.624;5.886;2024-02-23T06:12:38;7.75;;;1.70;;
62707;SDS011;48769;51.624;5.886;2024-02-23T06:15:03;9.27;;;1.42;;
62707;SDS011;48769;51.624;5.886;2024-02-23T06:17:29;11.30;;;1.70;;
62707;SDS011;48769;51.624;5.886;2024-02-23T06:19:54;7.90;;;1.73;;
62707;SDS011;48769;51.624;5.886;2024-02-23T06:22:22;4.97;;;1.27;;
62707;SDS011;48769;51.624;5.886;2024-02-23T06:24:48;11.18;;;2.05;;
62707;SDS011;48769;51.624;5.886;2024-02-23T06:27:14;9.60;;;1.58;;
62707;SDS011;48769;51.624;5.886;2024-02-23T06:29:39;9.45;;;1.60;;
62707;SDS011;48769;51.624;5.886;2024-02-23T06:32:04;8.55;;;1.50;;
62707;SDS011;48769;51.624;5.886;2024-02-23T06:34:30;8.13;;;1.73;;
62707;SDS011;48769;51.624;5.886;2024-02-23T06:36:56;10.68;;;2.35;;
62707;SDS011;48769;51.624;5.886;2024-02-23T06:39:21;9.55;;;1.33;;
62707;SDS011;48769;51.624;5.886;2024-02-23T06:41:46;10.40;;;2.15;;
62707;SDS011;48769;51.624;5.886;2024-02-23T06:44:12;9.15;;;1.45;;
62707;SDS011;48769;51.624;5.886;2024-02-23T06:46:37;10.02;;;1.77;;
62707;SDS011;48769;51.624;5.886;2024-02-23T06:49:03;13.40;;;2.53;;
62707;SDS011;48769;51.624;5.886;2024-02-23T06:51:29;6.65;;;2.10;;
62707;SDS011;48769;51.624;5.886;2024-02-23T06:53:56;8.40;;;1.45;;
62707;SDS011;48769;51.624;5.886;2024-02-23T06:56:21;10.85;;;2.20;;
62707;SDS011;48769;51.624;5.886;2024-02-23T06:58:47;13.05;;;2.40;;
62707;SDS011;48769;51.624;5.886;2024-02-23T07:01:12;9.63;;;1.73;;
62707;SDS011;48769;51.624;5.886;2024-02-23T07:03:38;7.00;;;1.63;;
62707;SDS011;48769;51.624;5.886;2024-02-23T07:06:04;7.65;;;1.73;;
62707;SDS011;48769;51.624;5.886;2024-02-23T07:08:30;12.20;;;1.75;;
62707;SDS011;48769;51.624;5.886;2024-02-23T07:10:55;6.30;;;1.60;;
62707;SDS011;48769;51.624;5.886;2024-02-23T07:13:20;5.60;;;1.98;;
62707;SDS011;48769;51.624;5.886;2024-02-23T07:15:46;7.65;;;1.63;;
62707;SDS011;48769;51.624;5.886;2024-02-23T07:18:11;9.05;;;1.88;;
62707;SDS011;48769;51.624;5.886;2024-02-23T07:20:36;11.45;;;1.75;;
62707;SDS011;48769;51.624;5.886;2024-02-23T07:23:02;9.68;;;1.88;;
62707;SDS011;48769;51.624;5.886;2024-02-23T07:25:27;16.42;;;2.15;;
62707;SDS011;48769;51.624;5.886;2024-02-23T07:27:53;7.70;;;1.60;;
62707;SDS011;48769;51.624;5.886;2024-02-23T07:30:18;15.13;;;1.88;;
62707;SDS011;48769;51.624;5.886;2024-02-23T07:32:44;14.13;;;2.15;;
62707;SDS011;48769;51.624;5.886;2024-02-23T07:35:10;9.95;;;2.42;;
62707;SDS011;48769;51.624;5.886;2024-02-23T07:37:36;15.20;;;1.65;;
62707;SDS011;48769;51.624;5.886;2024-02-23T07:40:02;6.75;;;1.70;;
62707;SDS011;48769;51.624;5.886;2024-02-23T07:42:29;6.40;;;1.40;;
62707;SDS011;48769;51.624;5.886;2024-02-23T07:44:55;13.43;;;2.03;;
62707;SDS011;48769;51.624;5.886;2024-02-23T07:47:21;4.45;;;1.40;;
62707;SDS011;48769;51.624;5.886;2024-02-23T07:52:18;10.83;;;1.47;;
62707;SDS011;48769;51.624;5.886;2024-02-23T07:54:44;11.75;;;1.33;;
62707;SDS011;48769;51.624;5.886;2024-02-23T07:57:09;8.52;;;1.27;;
62707;SDS011;48769;51.624;5.886;2024-02-23T07:59:35;11.35;;;1.70;;
62707;SDS011;48769;51.624;5.886;2024-02-23T08:02:00;8.18;;;1.48;;
62707;SDS011;48769;51.624;5.886;2024-02-23T08:04:28;15.48;;;1.80;;
62707;SDS011;48769;51.624;5.886;2024-02-23T08:06:53;7.55;;;1.50;;
62707;SDS011;48769;51.624;5.886;2024-02-23T08:09:19;10.18;;;2.22;;
62707;SDS011;48769;51.624;5.886;2024-02-23T08:11:46;8.40;;;1.30;;
62707;SDS011;48769;51.624;5.886;2024-02-23T08:14:11;10.18;;;1.70;;
62707;SDS011;48769;51.624;5.886;2024-02-23T08:16:37;10.27;;;1.30;;
62707;SDS011;48769;51.624;5.886;2024-02-23T08:19:02;9.98;;;2.15;;
62707;SDS011;48769;51.624;5.886;2024-02-23T08:21:28;11.27;;;1.63;;
62707;SDS011;48769;51.624;5.886;2024-02-23T08:23:53;6.40;;;1.42;;
62707;SDS011;48769;51.624;5.886;2024-02-23T08:26:18;6.82;;;1.60;;
62707;SDS011;48769;51.624;5.886;2024-02-23T08:28:44;3.95;;;1.48;;
62707;SDS011;48769;51.624;5.886;2024-02-23T08:31:09;10.48;;;1.60;;
62707;SDS011;48769;51.624;5.886;2024-02-23T08:33:34;7.60;;;1.70;;
62707;SDS011;48769;51.624;5.886;2024-02-23T08:36:00;8.10;;;1.63;;
62707;SDS011;48769;51.624;5.886;2024-02-23T08:38:25;9.02;;;1.88;;
62707;SDS011;48769;51.624;5.886;2024-02-23T08:40:50;7.75;;;1.77;;
62707;SDS011;48769;51.624;5.886;2024-02-23T08:43:16;6.18;;;2.42;;
62707;SDS011;48769;51.624;5.886;2024-02-23T08:45:41;7.55;;;1.50;;
62707;SDS011;48769;51.624;5.886;2024-02-23T08:48:16;13.23;;;3.05;;
62707;SDS011;48769;51.624;5.886;2024-02-23T08:50:41;13.15;;;2.00;;
62707;SDS011;48769;51.624;5.886;2024-02-23T08:53:06;5.13;;;1.33;;
62707;SDS011;48769;51.624;5.886;2024-02-23T08:55:32;7.03;;;1.92;;
62707;SDS011;48769;51.624;5.886;2024-02-23T08:57:58;10.40;;;1.55;;
62707;SDS011;48769;51.624;5.886;2024-02-23T09:00:24;10.80;;;2.08;;
62707;SDS011;48769;51.624;5.886;2024-02-23T09:02:49;12.70;;;2.55;;
62707;SDS011;48769;51.624;5.886;2024-02-23T09:05:15;9.35;;;1.73;;
62707;SDS011;48769;51.624;5.886;2024-02-23T09:07:40;5.53;;;1.27;;
62707;SDS011;48769;51.624;5.886;2024-02-23T09:10:06;7.05;;;1.48;;
62707;SDS011;48769;51.624;5.886;2024-02-23T09:12:31;13.18;;;1.83;;
62707;SDS011;48769;51.624;5.886;2024-02-23T09:14:56;7.15;;;1.35;;
62707;SDS011;48769;51.624;5.886;2024-02-23T09:17:23;17.13;;;2.53;;
62707;SDS011;48769;51.624;5.886;2024-02-23T09:19:48;8.10;;;1.83;;
62707;SDS011;48769;51.624;5.886;2024-02-23T09:22:14;10.35;;;2.50;;
62707;SDS011;48769;51.624;5.886;2024-02-23T09:24:40;7.20;;;1.60;;
62707;SDS011;48769;51.624;5.886;2024-02-23T09:27:06;12.07;;;2.38;;
62707;SDS011;48769;51.624;5.886;2024-02-23T09:29:32;10.27;;;1.77;;
62707;SDS011;48769;51.624;5.886;2024-02-23T09:31:58;8.18;;;1.38;;
62707;SDS011;48769;51.624;5.886;2024-02-23T09:34:23;6.90;;;1.92;;
62707;SDS011;48769;51.624;5.886;2024-02-23T09:36:49;9.75;;;2.15;;
62707;SDS011;48769;51.624;5.886;2024-02-23T09:39:15;9.50;;;1.48;;
62707;SDS011;48769;51.624;5.886;2024-02-23T09:41:40;5.72;;;1.60;;
62707;SDS011;48769;51.624;5.886;2024-02-23T09:44:07;9.75;;;1.98;;
62707;SDS011;48769;51.624;5.886;2024-02-23T09:46:51;9.50;;;1.73;;
62707;SDS011;48769;51.624;5.886;2024-02-23T09:49:17;16.15;;;2.17;;
62707;SDS011;48769;51.624;5.886;2024-02-23T09:51:42;7.22;;;1.67;;
62707;SDS011;48769;51.624;5.886;2024-02-23T09:54:08;5.18;;;1.35;;
62707;SDS011;48769;51.624;5.886;2024-02-23T09:56:34;9.00;;;1.52;;
62707;SDS011;48769;51.624;5.886;2024-02-23T09:59:01;6.60;;;1.45;;
62707;SDS011;48769;51.624;5.886;2024-02-23T10:01:28;6.63;;;1.33;;
62707;SDS011;48769;51.624;5.886;2024-02-23T10:03:58;8.73;;;1.65;;
62707;SDS011;48769;51.624;5.886;2024-02-23T10:06:25;8.60;;;1.60;;
62707;SDS011;48769;51.624;5.886;2024-02-23T10:08:50;12.70;;;2.13;;
62707;SDS011;48769;51.624;5.886;2024-02-23T10:11:23;13.32;;;1.88;;
62707;SDS011;48769;51.624;5.886;2024-02-23T10:13:50;6.55;;;1.42;;
62707;SDS011;48769;51.624;5.886;2024-02-23T10:16:17;7.85;;;1.30;;
62707;SDS011;48769;51.624;5.886;2024-02-23T10:18:45;10.52;;;2.00;;
62707;SDS011;48769;51.624;5.886;2024-02-23T10:21:11;8.45;;;1.40;;
62707;SDS011;48769;51.624;5.886;2024-02-23T10:23:37;10.82;;;2.30;;
62707;SDS011;48769;51.624;5.886;2024-02-23T10:26:04;4.95;;;0.93;;
62707;SDS011;48769;51.624;5.886;2024-02-23T10:28:30;5.63;;;1.13;;
62707;SDS011;48769;51.624;5.886;2024-02-23T10:30:56;7.47;;;1.23;;
62707;SDS011;48769;51.624;5.886;2024-02-23T10:33:22;6.45;;;1.65;;
62707;SDS011;48769;51.624;5.886;2024-02-23T10:35:53;6.43;;;1.33;;
62707;SDS011;48769;51.624;5.886;2024-02-23T10:38:22;7.32;;;1.30;;
62707;SDS011;48769;51.624;5.886;2024-02-23T10:40:48;5.35;;;1.42;;
62707;SDS011;48769;51.624;5.886;2024-02-23T10:43:16;11.20;;;1.50;;
62707;SDS011;48769;51.624;5.886;2024-02-23T10:45:45;8.07;;;1.60;;
62707;SDS011;48769;51.624;5.886;2024-02-23T10:48:11;3.83;;;1.02;;
62707;SDS011;48769;51.624;5.886;2024-02-23T10:50:39;4.57;;;1.17;;
62707;SDS011;48769;51.624;5.886;2024-02-23T10:53:06;7.47;;;1.25;;
62707;SDS011;48769;51.624;5.886;2024-02-23T10:55:33;12.30;;;1.50;;
62707;SDS011;48769;51.624;5.886;2024-02-23T10:58:02;5.55;;;1.30;;
62707;SDS011;48769;51.624;5.886;2024-02-23T11:00:28;6.50;;;1.33;;
62707;SDS011;48769;51.624;5.886;2024-02-23T11:03:01;4.95;;;1.10;;
62707;SDS011;48769;51.624;5.886;2024-02-23T11:05:28;3.72;;;1.10;;
62707;SDS011;48769;51.624;5.886;2024-02-23T11:07:58;10.90;;;1.88;;
62707;SDS011;48769;51.624;5.886;2024-02-23T11:10:23;4.60;;;1.00;;
62707;SDS011;48769;51.624;5.886;2024-02-23T11:13:02;8.70;;;1.48;;
62707;SDS011;48769;51.624;5.886;2024-02-23T11:15:33;6.18;;;1.60;;
62707;SDS011;48769;51.624;5.886;2024-02-23T11:18:04;5.30;;;1.35;;
62707;SDS011;48769;51.624;5.886;2024-02-23T11:20:53;7.90;;;1.52;;
62707;SDS011;48769;51.624;5.886;2024-02-23T11:23:23;3.10;;;1.10;;
62707;SDS011;48769;51.624;5.886;2024-02-23T11:26:04;5.53;;;1.15;;
62707;SDS011;48769;51.624;5.886;2024-02-23T11:28:31;7.45;;;1.40;;
62707;SDS011;48769;51.624;5.886;2024-02-23T11:30:57;7.38;;;1.40;;
62707;SDS011;48769;51.624;5.886;2024-02-23T11:33:27;7.88;;;2.15;;
62707;SDS011;48769;51.624;5.886;2024-02-23T11:35:53;7.05;;;1.75;;
62707;SDS011;48769;51.624;5.886;2024-02-23T11:38:29;4.75;;;1.05;;
62707;SDS011;48769;51.624;5.886;2024-02-23T11:40:55;7.28;;;1.80;;
62707;SDS011;48769;51.624;5.886;2024-02-23T11:43:21;4.88;;;1.45;;
62707;SDS011;48769;51.624;5.886;2024-02-23T11:45:47;10.50;;;1.88;;
62707;SDS011;48769;51.624;5.886;2024-02-23T11:48:12;5.18;;;1.58;;
62707;SDS011;48769;51.624;5.886;2024-02-23T11:50:38;5.47;;;1.65;;
62707;SDS011;48769;51.624;5.886;2024-02-23T11:53:03;6.65;;;1.52;;
62707;SDS011;48769;51.624;5.886;2024-02-23T11:55:29;7.85;;;1.90;;
62707;SDS011;48769;51.624;5.886;2024-02-23T11:57:55;6.00;;;1.98;;
62707;SDS011;48769;51.624;5.886;2024-02-23T12:00:20;9.77;;;1.65;;
62707;SDS011;48769;51.624;5.886;2024-02-23T12:02:46;12.70;;;2.17;;
62707;SDS011;48769;51.624;5.886;2024-02-23T12:05:13;7.75;;;1.50;;
62707;SDS011;48769;51.624;5.886;2024-02-23T12:07:39;4.50;;;1.50;;
62707;SDS011;48769;51.624;5.886;2024-02-23T12:10:05;4.35;;;1.38;;
62707;SDS011;48769;51.624;5.886;2024-02-23T12:12:32;6.80;;;1.48;;
62707;SDS011;48769;51.624;5.886;2024-02-23T12:14:58;11.40;;;1.52;;
62707;SDS011;48769;51.624;5.886;2024-02-23T12:17:24;4.53;;;1.50;;
62707;SDS011;48769;51.624;5.886;2024-02-23T12:19:57;8.43;;;1.45;;
62707;SDS011;48769;51.624;5.886;2024-02-23T12:22:24;6.80;;;1.95;;
62707;SDS011;48769;51.624;5.886;2024-02-23T12:24:50;9.20;;;1.55;;
62707;SDS011;48769;51.624;5.886;2024-02-23T12:27:18;7.68;;;1.13;;
62707;SDS011;48769;51.624;5.886;2024-02-23T12:29:53;4.95;;;1.23;;
62707;SDS011;48769;51.624;5.886;2024-02-23T12:32:19;6.00;;;1.48;;
62707;SDS011;48769;51.624;5.886;2024-02-23T12:34:45;4.18;;;1.20;;
62707;SDS011;48769;51.624;5.886;2024-02-23T12:37:14;7.45;;;1.65;;
62707;SDS011;48769;51.624;5.886;2024-02-23T12:39:53;3.15;;;1.38;;
62707;SDS011;48769;51.624;5.886;2024-02-23T12:42:18;4.80;;;1.10;;
62707;SDS011;48769;51.624;5.886;2024-02-23T12:44:44;5.32;;;1.55;;
62707;SDS011;48769;51.624;5.886;2024-02-23T12:47:09;3.60;;;0.90;;
62707;SDS011;48769;51.624;5.886;2024-02-23T12:49:35;6.00;;;1.33;;
62707;SDS011;48769;51.624;5.886;2024-02-23T12:52:00;8.07;;;1.40;;
62707;SDS011;48769;51.624;5.886;2024-02-23T12:54:26;4.55;;;0.85;;
62707;SDS011;48769;51.624;5.886;2024-02-23T12:56:51;7.75;;;2.13;;
62707;SDS011;48769;51.624;5.886;2024-02-23T12:59:16;5.22;;;1.30;;
62707;SDS011;48769;51.624;5.886;2024-02-23T13:01:42;7.15;;;1.52;;
62707;SDS011;48769;51.624;5.886;2024-02-23T13:04:08;7.45;;;1.38;;
62707;SDS011;48769;51.624;5.886;2024-02-23T13:06:38;7.88;;;1.25;;
62707;SDS011;48769;51.624;5.886;2024-02-23T13:09:04;5.22;;;1.77;;
62707;SDS011;48769;51.624;5.886;2024-02-23T13:11:30;5.25;;;2.35;;
62707;SDS011;48769;51.624;5.886;2024-02-23T13:13:56;9.48;;;2.47;;
62707;SDS011;48769;51.624;5.886;2024-02-23T13:16:21;5.70;;;1.50;;
62707;SDS011;48769;51.624;5.886;2024-02-23T13:18:46;7.70;;;1.98;;
62707;SDS011;48769;51.624;5.886;2024-02-23T13:21:12;7.07;;;1.40;;
62707;SDS011;48769;51.624;5.886;2024-02-23T13:23:38;5.32;;;1.35;;
62707;SDS011;48769;51.624;5.886;2024-02-23T13:26:04;4.80;;;1.52;;
62707;SDS011;48769;51.624;5.886;2024-02-23T13:28:30;3.03;;;0.80;;
62707;SDS011;48769;51.624;5.886;2024-02-23T13:30:55;6.72;;;1.40;;
62707;SDS011;48769;51.624;5.886;2024-02-23T13:33:21;3.90;;;1.10;;
62707;SDS011;48769;51.624;5.886;2024-02-23T13:35:47;7.38;;;1.40;;
62707;SDS011;48769;51.624;5.886;2024-02-23T13:38:12;5.88;;;1.23;;
62707;SDS011;48769;51.624;5.886;2024-02-23T13:40:38;6.97;;;1.02;;
62707;SDS011;48769;51.624;5.886;2024-02-23T13:43:03;8.27;;;1.33;;
62707;SDS011;48769;51.624;5.886;2024-02-23T13:45:29;5.47;;;1.20;;
62707;SDS011;48769;51.624;5.886;2024-02-23T13:47:59;7.47;;;1.13;;
62707;SDS011;48769;51.624;5.886;2024-02-23T13:50:26;3.72;;;1.15;;
62707;SDS011;48769;51.624;5.886;2024-02-23T13:52:52;6.85;;;1.40;;
62707;SDS011;48769;51.624;5.886;2024-02-23T13:55:17;5.97;;;1.35;;
62707;SDS011;48769;51.624;5.886;2024-02-23T13:57:45;4.25;;;1.40;;
62707;SDS011;48769;51.624;5.886;2024-02-23T14:00:11;4.80;;;1.20;;
62707;SDS011;48769;51.624;5.886;2024-02-23T14:02:37;5.95;;;1.83;;
62707;SDS011;48769;51.624;5.886;2024-02-23T14:05:05;8.20;;;1.48;;
62707;SDS011;48769;51.624;5.886;2024-02-23T14:07:38;8.05;;;1.40;;
62707;SDS011;48769;51.624;5.886;2024-02-23T14:10:04;5.75;;;1.40;;
62707;SDS011;48769;51.624;5.886;2024-02-23T14:12:30;8.80;;;1.40;;
62707;SDS011;48769;51.624;5.886;2024-02-23T14:14:55;3.92;;;1.55;;
62707;SDS011;48769;51.624;5.886;2024-02-23T14:17:21;7.97;;;1.25;;
62707;SDS011;48769;51.624;5.886;2024-02-23T14:19:46;5.07;;;1.25;;
62707;SDS011;48769;51.624;5.886;2024-02-23T14:22:12;6.25;;;1.40;;
62707;SDS011;48769;51.624;5.886;2024-02-23T14:24:37;6.03;;;1.45;;
62707;SDS011;48769;51.624;5.886;2024-02-23T14:27:02;7.55;;;1.65;;
62707;SDS011;48769;51.624;5.886;2024-02-23T14:29:28;5.85;;;1.60;;
62707;SDS011;48769;51.624;5.886;2024-02-23T14:31:53;8.25;;;2.58;;
62707;SDS011;48769;51.624;5.886;2024-02-23T14:34:19;8.18;;;2.30;;
62707;SDS011;48769;51.624;5.886;2024-02-23T14:36:46;8.57;;;1.30;;
62707;SDS011;48769;51.624;5.886;2024-02-23T14:39:11;9.55;;;1.70;;
62707;SDS011;48769;51.624;5.886;2024-02-23T14:41:38;8.35;;;1.83;;
62707;SDS011;48769;51.624;5.886;2024-02-23T14:44:04;10.20;;;1.38;;